Big Bear Station Historical Data
Daily Summary for February 16, 2017 Units:  English    Metric   Both
« Previous Day
Next Day »
Daily Weekly Monthly Yearly Custom
  High: Low: Average:
Temperature: 49.3 °F 26.4 °F 37.2 °F
Dew Point: 30.5 °F 20.9 °F 24.7 °F
Humidity: 92 % 36 % 64 %
Wind Speed: 6.3 mph 0.0 mph 1.4 mph
Wind Gust: -999.0 mph - -
Wind:- - SW
Pressure: 30.20 in 29.99 in -
Precipitation: 0.00 in    
Historical Graphs
 
 
Tabular Data for February 16, 2017
Time Temperature Dew Point Pressure Wind Wind Speed Wind Gust Humidity Rainfall Rate (Hourly)
00:09 26.8 °F 23.7 °F 30.20 in Calm   -999.0 mph 88 % 0 in
00:25 26.8 °F 24.0 °F 30.20 in Calm   -999.0 mph 89 % 0 in
00:40 26.8 °F 24.3 °F 30.20 in Calm   -999.0 mph 90 % 0 in
00:55 27.1 °F 24.6 °F 30.19 in Calm   -999.0 mph 90 % 0 in
01:10 27.0 °F 24.7 °F 30.20 in Calm   -999.0 mph 91 % 0 in
01:25 27.3 °F 24.5 °F 30.19 in Calm   -999.0 mph 89 % 0 in
01:41 27.3 °F 24.2 °F 30.19 in Calm   -999.0 mph 88 % 0 in
01:57 27.3 °F 23.9 °F 30.18 in Calm   -999.0 mph 87 % 0 in
02:12 27.3 °F 23.7 °F 30.18 in Calm   -999.0 mph 86 % 0 in
02:27 27.0 °F 22.8 °F 30.18 in Calm   -999.0 mph 84 % 0 in
02:42 27.0 °F 23.4 °F 30.17 in Calm   -999.0 mph 86 % 0 in
02:57 27.1 °F 24.0 °F 30.17 in Calm   -999.0 mph 88 % 0 in
03:13 26.6 °F 24.1 °F 30.16 in Calm   -999.0 mph 90 % 0 in
03:28 26.6 °F 24.3 °F 30.16 in Calm   -999.0 mph 91 % 0 in
03:43 26.4 °F 24.4 °F 30.15 in Calm   -999.0 mph 92 % 0 in
03:58 26.8 °F 24.8 °F 30.14 in Calm   -999.0 mph 92 % 0 in
04:13 27.9 °F 25.9 °F 30.15 in NNW 4.2 mph -999.0 mph 92 % 0 in
04:29 28.0 °F 25.7 °F 30.15 in SSW 1.7 mph -999.0 mph 91 % 0 in
04:44 27.5 °F 25.2 °F 30.14 in South 2.2 mph -999.0 mph 91 % 0 in
05:00 27.1 °F 24.8 °F 30.13 in SSW 2.2 mph -999.0 mph 91 % 0 in
05:15 27.3 °F 25.0 °F 30.13 in South 1.1 mph -999.0 mph 91 % 0 in
05:31 27.1 °F 24.8 °F 30.14 in Calm   -999.0 mph 91 % 0 in
05:46 28.0 °F 24.9 °F 30.13 in Calm   -999.0 mph 88 % 0 in
06:01 27.5 °F 25.0 °F 30.13 in Calm   -999.0 mph 90 % 0 in
06:16 27.3 °F 24.8 °F 30.13 in Calm   -999.0 mph 90 % 0 in
06:31 28.4 °F 25.0 °F 30.14 in Calm   -999.0 mph 87 % 0 in
06:47 27.5 °F 24.4 °F 30.14 in Calm   -999.0 mph 88 % 0 in
07:02 28.9 °F 24.7 °F 30.14 in Calm   -999.0 mph 84 % 0 in
07:17 30.9 °F 25.2 °F 30.14 in South 1.7 mph -999.0 mph 79 % 0 in
07:33 34.2 °F 25.1 °F 30.14 in SSW 2.2 mph -999.0 mph 69 % 0 in
07:48 36.7 °F 26.0 °F 30.14 in South 2.2 mph -999.0 mph 65 % 0 in
08:04 36.5 °F 25.5 °F 30.14 in Calm   -999.0 mph 64 % 0 in
08:19 39.0 °F 25.0 °F 30.14 in Calm   -999.0 mph 57 % 0 in
08:34 40.3 °F 25.8 °F 30.13 in NW 2.2 mph -999.0 mph 56 % 0 in
08:49 40.3 °F 25.4 °F 30.13 in NNW 1.7 mph -999.0 mph 55 % 0 in
09:05 42.1 °F 25.3 °F 30.13 in SW 2.2 mph -999.0 mph 51 % 0 in
09:20 43.9 °F 25.0 °F 30.13 in NNE 2.7 mph -999.0 mph 47 % 0 in
09:35 44.8 °F 26.8 °F 30.13 in SSE 1.1 mph -999.0 mph 49 % 0 in
09:51 45.5 °F 26.4 °F 30.13 in ESE 3.2 mph -999.0 mph 47 % 0 in
10:06 45.7 °F 26.6 °F 30.13 in WSW 1.1 mph -999.0 mph 47 % 0 in
10:21 47.5 °F 26.7 °F 30.12 in SSW 1.1 mph -999.0 mph 44 % 0 in
10:37 48.4 °F 26.9 °F 30.12 in NW 1.7 mph -999.0 mph 43 % 0 in
10:52 48.4 °F 25.2 °F 30.13 in South 3.2 mph -999.0 mph 40 % 0 in
11:07 49.3 °F 25.4 °F 30.12 in ESE 5.8 mph -999.0 mph 39 % 0 in
11:22 49.3 °F 26.0 °F 30.11 in South 1.1 mph -999.0 mph 40 % 0 in
11:37 48.6 °F 26.5 °F 30.10 in SSE 3.2 mph -999.0 mph 42 % 0 in
11:53 47.1 °F 25.2 °F 30.10 in West 3.7 mph -999.0 mph 42 % 0 in
12:08 47.7 °F 23.9 °F 30.10 in NW 4.7 mph -999.0 mph 39 % 0 in
12:23 47.8 °F 22.1 °F 30.11 in WNW 6.3 mph -999.0 mph 36 % 0 in
12:39 47.5 °F 23.1 °F 30.11 in SW 4.2 mph -999.0 mph 38 % 0 in
12:54 46.6 °F 23.6 °F 30.10 in NNW 4.7 mph -999.0 mph 40 % 0 in
13:10 46.0 °F 21.2 °F 30.10 in NW 1.7 mph -999.0 mph 37 % 0 in
13:25 47.1 °F 22.8 °F 30.09 in West 1.7 mph -999.0 mph 38 % 0 in
13:40 46.6 °F 22.9 °F 30.09 in Calm   -999.0 mph 39 % 0 in
13:56 47.1 °F 22.1 °F 30.09 in NE 3.7 mph -999.0 mph 37 % 0 in
14:11 45.5 °F 22.6 °F 30.09 in NW 3.7 mph -999.0 mph 40 % 0 in
14:26 45.7 °F 23.3 °F 30.09 in West 1.7 mph -999.0 mph 41 % 0 in
14:41 45.5 °F 23.1 °F 30.09 in WNW 2.2 mph -999.0 mph 41 % 0 in
14:56 46.4 °F 22.2 °F 30.08 in SSW 1.7 mph -999.0 mph 38 % 0 in
15:12 47.1 °F 21.5 °F 30.07 in SW 2.7 mph -999.0 mph 36 % 0 in
15:27 47.3 °F 21.7 °F 30.05 in WSW 1.1 mph -999.0 mph 36 % 0 in
15:42 46.4 °F 24.0 °F 30.05 in WNW 2.7 mph -999.0 mph 41 % 0 in
15:57 45.0 °F 24.4 °F 30.05 in WNW 2.2 mph -999.0 mph 44 % 0 in
16:12 44.1 °F 22.5 °F 30.05 in Calm   -999.0 mph 42 % 0 in
16:28 43.5 °F 23.6 °F 30.04 in WNW 2.2 mph -999.0 mph 45 % 0 in
16:43 42.4 °F 20.9 °F 30.03 in NE 2.2 mph -999.0 mph 42 % 0 in
16:58 41.5 °F 24.7 °F 30.04 in NNW 4.7 mph -999.0 mph 51 % 0 in
17:13 40.8 °F 25.4 °F 30.05 in NNE 1.7 mph -999.0 mph 54 % 0 in
17:29 40.3 °F 25.4 °F 30.04 in WNW 2.2 mph -999.0 mph 55 % 0 in
17:44 39.4 °F 25.0 °F 30.05 in Calm   -999.0 mph 56 % 0 in
17:59 38.3 °F 23.5 °F 30.05 in Calm   -999.0 mph 55 % 0 in
18:14 37.6 °F 22.9 °F 30.05 in SSE 1.1 mph -999.0 mph 55 % 0 in
18:29 36.7 °F 22.5 °F 30.04 in Calm   -999.0 mph 56 % 0 in
18:45 36.1 °F 23.5 °F 30.04 in SSW 1.7 mph -999.0 mph 60 % 0 in
19:15 37.2 °F 25.4 °F 30.03 in NW 1.1 mph -999.0 mph 62 % 0 in
19:30 36.9 °F 25.5 °F 30.03 in Calm   -999.0 mph 63 % 0 in
19:46 36.7 °F 24.5 °F 30.04 in NE 1.7 mph -999.0 mph 61 % 0 in
20:01 36.7 °F 24.9 °F 30.03 in Calm   -999.0 mph 62 % 0 in
20:16 36.3 °F 24.9 °F 30.03 in Calm   -999.0 mph 63 % 0 in
20:31 35.6 °F 24.2 °F 30.03 in SSE 2.2 mph -999.0 mph 63 % 0 in
20:47 35.2 °F 24.2 °F 30.03 in Calm   -999.0 mph 64 % 0 in
21:02 34.7 °F 24.5 °F 30.02 in Calm   -999.0 mph 66 % 0 in
21:17 34.5 °F 23.9 °F 30.03 in Calm   -999.0 mph 65 % 0 in
21:32 34.7 °F 25.2 °F 30.03 in Calm   -999.0 mph 68 % 0 in
21:47 35.8 °F 25.9 °F 30.02 in Calm   -999.0 mph 67 % 0 in
22:03 36.3 °F 26.0 °F 30.01 in SSW 1.1 mph -999.0 mph 66 % 0 in
22:18 37.4 °F 26.0 °F 30.01 in NNW 1.7 mph -999.0 mph 63 % 0 in
22:33 37.6 °F 26.1 °F 30.01 in South 1.1 mph -999.0 mph 63 % 0 in
22:48 37.4 °F 26.0 °F 30.01 in South 1.1 mph -999.0 mph 63 % 0 in
23:04 37.6 °F 27.6 °F 30.00 in Calm   -999.0 mph 67 % 0 in
23:19 37.8 °F 29.2 °F 30.00 in WNW 1.7 mph -999.0 mph 71 % 0 in
23:35 37.4 °F 30.5 °F 30.00 in Calm   -999.0 mph 76 % 0 in
23:50 37.2 °F 30.3 °F 29.99 in SW 1.7 mph -999.0 mph 76 % 0 in
Big Bear CA Weather
Compliments of Weather Underground - 1.5 mb